createdAt,value
2022-12-18T00:00:04.075Z,963.53
2022-12-18T00:01:04.082Z,963.57
2022-12-18T00:02:04.100Z,963.55
2022-12-18T00:03:04.214Z,963.52
2022-12-18T00:04:04.194Z,963.55
2022-12-18T00:05:04.012Z,963.57
2022-12-18T00:06:03.990Z,963.59
2022-12-18T00:07:04.056Z,963.58
2022-12-18T00:08:03.958Z,963.59
2022-12-18T00:09:04.074Z,963.57
2022-12-18T00:10:03.966Z,963.57
2022-12-18T00:11:03.938Z,963.61
2022-12-18T00:13:06.690Z,963.63
2022-12-18T00:14:03.931Z,963.62
2022-12-18T00:15:03.915Z,963.67
2022-12-18T00:16:03.946Z,963.68
2022-12-18T00:17:03.869Z,963.72
2022-12-18T00:18:03.850Z,963.65
2022-12-18T00:19:03.857Z,963.69
2022-12-18T00:20:03.808Z,963.68
2022-12-18T00:21:03.808Z,963.67
2022-12-18T00:22:03.798Z,963.66
2022-12-18T00:23:03.780Z,963.67
2022-12-18T00:24:03.783Z,963.67
2022-12-18T00:25:03.765Z,963.68
2022-12-18T00:26:03.817Z,963.73
2022-12-18T00:27:03.754Z,963.73
2022-12-18T00:28:03.744Z,963.68
2022-12-18T00:29:03.708Z,963.74
2022-12-18T00:30:03.692Z,963.77
2022-12-18T00:31:03.771Z,963.76
2022-12-18T00:32:03.739Z,963.74
2022-12-18T00:33:03.653Z,963.71
2022-12-18T00:34:03.687Z,963.68
2022-12-18T00:35:03.623Z,963.74
2022-12-18T00:36:03.619Z,963.75
2022-12-18T00:37:03.644Z,963.75
2022-12-18T00:38:03.620Z,963.75
2022-12-18T00:39:03.597Z,963.78
2022-12-18T00:40:03.571Z,963.79
2022-12-18T00:41:03.562Z,963.77
2022-12-18T00:42:03.540Z,963.72
2022-12-18T00:43:03.570Z,963.70
2022-12-18T00:44:03.520Z,963.69
2022-12-18T00:45:07.655Z,963.65
2022-12-18T00:46:03.558Z,963.68
2022-12-18T00:47:03.511Z,963.60
2022-12-18T00:48:03.463Z,963.67
2022-12-18T00:49:03.485Z,963.61
2022-12-18T00:50:03.434Z,963.57
2022-12-18T00:51:03.436Z,963.60
2022-12-18T00:52:03.453Z,963.56
2022-12-18T00:53:03.416Z,963.62
2022-12-18T00:54:03.414Z,963.59
2022-12-18T00:55:06.449Z,963.63
2022-12-18T00:56:03.379Z,963.64
2022-12-18T00:57:03.370Z,963.68
2022-12-18T00:58:03.351Z,963.67
2022-12-18T00:59:03.335Z,963.71
2022-12-18T01:00:03.321Z,963.69
2022-12-18T01:01:03.392Z,963.70
2022-12-18T01:02:03.381Z,963.74
2022-12-18T01:03:03.374Z,963.67
2022-12-18T01:04:03.272Z,963.67
2022-12-18T01:05:03.264Z,963.68
2022-12-18T01:06:03.265Z,963.66
2022-12-18T01:07:03.236Z,963.69
2022-12-18T01:08:03.238Z,963.68
2022-12-18T01:09:03.208Z,963.64
2022-12-18T01:10:03.216Z,963.65
2022-12-18T01:11:03.208Z,963.65
2022-12-18T01:12:03.197Z,963.63
2022-12-18T01:13:03.172Z,963.65
2022-12-18T01:14:03.137Z,963.68
2022-12-18T01:15:03.209Z,963.68
2022-12-18T01:16:03.151Z,963.73
2022-12-18T01:17:03.112Z,963.77
2022-12-18T01:18:03.088Z,963.74
2022-12-18T01:19:03.093Z,963.79
2022-12-18T01:20:03.129Z,963.79
2022-12-18T01:21:03.058Z,963.84
2022-12-18T01:22:03.047Z,963.84
2022-12-18T01:23:03.066Z,963.83
2022-12-18T01:24:03.022Z,963.96
2022-12-18T01:25:03.008Z,963.97
2022-12-18T01:26:03.026Z,963.99
2022-12-18T01:27:03.103Z,963.97
2022-12-18T01:28:02.973Z,963.96
2022-12-18T01:29:02.982Z,963.96
2022-12-18T01:30:02.935Z,964.01
2022-12-18T01:31:02.929Z,963.98
2022-12-18T01:32:03.029Z,964.05
2022-12-18T01:33:02.902Z,964.04
2022-12-18T01:34:02.894Z,964.08
2022-12-18T01:35:02.888Z,964.04
2022-12-18T01:36:02.859Z,964.04
2022-12-18T01:37:02.881Z,964.09
2022-12-18T01:38:02.854Z,964.11
2022-12-18T01:39:02.840Z,964.07
2022-12-18T01:40:02.816Z,964.10
2022-12-18T01:41:02.810Z,964.13
2022-12-18T01:42:02.813Z,964.10
2022-12-18T01:43:02.852Z,964.14
2022-12-18T01:44:02.770Z,964.14
2022-12-18T01:45:02.757Z,964.11
2022-12-18T01:46:02.799Z,964.11
2022-12-18T01:47:02.764Z,964.15
2022-12-18T01:48:02.706Z,964.13
2022-12-18T01:49:02.708Z,964.09
2022-12-18T01:50:02.690Z,964.14
2022-12-18T01:51:02.699Z,964.15
2022-12-18T01:52:02.684Z,964.08
2022-12-18T01:53:02.670Z,964.12
2022-12-18T01:54:02.660Z,964.10
2022-12-18T01:55:02.667Z,964.05
2022-12-18T01:56:02.607Z,964.00
2022-12-18T01:57:02.618Z,964.03
2022-12-18T01:58:02.646Z,964.02
2022-12-18T01:59:02.579Z,964.08
2022-12-18T02:00:02.605Z,964.04
2022-12-18T02:01:02.637Z,964.07
2022-12-18T02:02:02.683Z,964.12
2022-12-18T02:03:02.584Z,964.16
2022-12-18T02:04:02.512Z,964.18
2022-12-18T02:05:02.531Z,964.19
2022-12-18T02:06:02.488Z,964.19
2022-12-18T02:07:02.486Z,964.21
2022-12-18T02:08:02.463Z,964.27
2022-12-18T02:09:02.459Z,964.25
2022-12-18T02:10:02.462Z,964.29
2022-12-18T02:11:02.443Z,964.33
2022-12-18T02:12:02.418Z,964.39
2022-12-18T02:13:02.424Z,964.39
2022-12-18T02:14:02.384Z,964.38
2022-12-18T02:15:02.418Z,964.39
2022-12-18T02:16:02.359Z,964.41
2022-12-18T02:17:02.421Z,964.38
2022-12-18T02:18:02.338Z,964.40
2022-12-18T02:19:02.367Z,964.43
2022-12-18T02:20:02.366Z,964.40
2022-12-18T02:21:02.307Z,964.37
2022-12-18T02:22:02.286Z,964.32
2022-12-18T02:23:02.284Z,964.31
2022-12-18T02:24:02.266Z,964.25
2022-12-18T02:25:02.292Z,964.25
2022-12-18T02:26:02.235Z,964.30
2022-12-18T02:27:02.231Z,964.25
2022-12-18T02:28:02.222Z,964.31
2022-12-18T02:29:02.229Z,964.25
2022-12-18T02:30:02.212Z,964.25
2022-12-18T02:31:02.244Z,964.27
2022-12-18T02:32:02.166Z,964.33
2022-12-18T02:33:02.181Z,964.29
2022-12-18T02:34:02.161Z,964.30
2022-12-18T02:35:02.135Z,964.32
2022-12-18T02:36:02.117Z,964.32
2022-12-18T02:37:02.246Z,964.31
2022-12-18T02:38:02.089Z,964.26
2022-12-18T02:39:02.090Z,964.29
2022-12-18T02:40:02.074Z,964.24
2022-12-18T02:41:02.059Z,964.26
2022-12-18T02:42:02.070Z,964.24
2022-12-18T02:43:02.038Z,964.21
2022-12-18T02:44:02.020Z,964.25
2022-12-18T02:45:02.032Z,964.25
2022-12-18T02:46:02.067Z,964.24
2022-12-18T02:47:01.979Z,964.24
2022-12-18T02:48:02.019Z,964.26
2022-12-18T02:49:01.984Z,964.29
2022-12-18T02:50:01.953Z,964.29
2022-12-18T02:51:01.947Z,964.31
2022-12-18T02:52:01.950Z,964.26
2022-12-18T02:53:01.906Z,964.29
2022-12-18T02:54:01.891Z,964.29
2022-12-18T02:55:01.909Z,964.33
2022-12-18T02:56:01.899Z,964.29
2022-12-18T02:57:01.879Z,964.33
2022-12-18T02:58:01.852Z,964.36
2022-12-18T02:59:01.906Z,964.33
2022-12-18T03:00:01.854Z,964.30
2022-12-18T03:01:01.879Z,964.35
2022-12-18T03:02:02.061Z,964.31
2022-12-18T03:03:01.906Z,964.36
2022-12-18T03:04:01.760Z,964.35
2022-12-18T03:05:01.759Z,964.28
2022-12-18T03:06:01.764Z,964.35
2022-12-18T03:07:01.770Z,964.33
2022-12-18T03:08:01.721Z,964.30
2022-12-18T03:09:01.741Z,964.37
2022-12-18T03:10:01.689Z,964.30
2022-12-18T03:11:01.750Z,964.33
2022-12-18T03:12:01.690Z,964.29
2022-12-18T03:13:01.659Z,964.29
2022-12-18T03:14:01.664Z,964.30
2022-12-18T03:15:01.674Z,964.30
2022-12-18T03:16:01.632Z,964.31
2022-12-18T03:17:01.693Z,964.33
2022-12-18T03:18:01.632Z,964.32
2022-12-18T03:19:01.576Z,964.30
2022-12-18T03:20:01.580Z,964.29
2022-12-18T03:21:01.578Z,964.28
2022-12-18T03:22:01.556Z,964.25
2022-12-18T03:23:01.579Z,964.25
2022-12-18T03:24:01.554Z,964.27
2022-12-18T03:25:01.509Z,964.23
2022-12-18T03:26:07.148Z,964.23
2022-12-18T03:27:01.481Z,964.25
2022-12-18T03:28:01.510Z,964.28
2022-12-18T03:29:01.464Z,964.23
2022-12-18T03:30:01.460Z,964.28
2022-12-18T03:31:01.581Z,964.36
2022-12-18T03:32:01.440Z,964.31
2022-12-18T03:33:01.449Z,964.33
2022-12-18T03:34:01.417Z,964.31
2022-12-18T03:35:01.393Z,964.31
2022-12-18T03:36:01.391Z,964.28
2022-12-18T03:37:01.358Z,964.38
2022-12-18T03:38:01.402Z,964.40
2022-12-18T03:39:01.345Z,964.37
2022-12-18T03:40:01.328Z,964.40
2022-12-18T03:41:01.330Z,964.37
2022-12-18T03:42:01.351Z,964.37
2022-12-18T03:43:01.289Z,964.38
2022-12-18T03:44:01.289Z,964.34
2022-12-18T03:45:01.266Z,964.36
2022-12-18T03:46:01.395Z,964.33
2022-12-18T03:47:01.263Z,964.35
2022-12-18T03:48:01.344Z,964.41
2022-12-18T03:49:01.242Z,964.38
2022-12-18T03:50:01.207Z,964.38
2022-12-18T03:51:01.190Z,964.34
2022-12-18T03:52:01.184Z,964.37
2022-12-18T03:53:01.198Z,964.36
2022-12-18T03:54:01.191Z,964.36
2022-12-18T03:55:01.134Z,964.31
2022-12-18T03:56:01.135Z,964.34
2022-12-18T03:57:01.157Z,964.35
2022-12-18T03:58:01.119Z,964.27
2022-12-18T03:59:01.125Z,964.32
2022-12-18T04:00:01.118Z,964.27
2022-12-18T04:01:01.061Z,964.24
2022-12-18T04:02:01.170Z,964.24
2022-12-18T04:03:01.082Z,964.14
2022-12-18T04:04:01.120Z,964.17
2022-12-18T04:05:01.022Z,964.14
2022-12-18T04:06:01.000Z,964.18
2022-12-18T04:07:01.009Z,964.16
2022-12-18T04:08:01.012Z,964.19
2022-12-18T04:09:00.966Z,964.22
2022-12-18T04:10:00.992Z,964.20
2022-12-18T04:11:00.945Z,964.17
2022-12-18T04:12:00.932Z,964.14
2022-12-18T04:13:00.916Z,964.19
2022-12-18T04:14:04.672Z,964.19
2022-12-18T04:15:00.897Z,964.18
2022-12-18T04:16:00.924Z,964.17
2022-12-18T04:17:00.889Z,964.18
2022-12-18T04:18:00.886Z,964.09
2022-12-18T04:19:00.847Z,964.10
2022-12-18T04:20:00.859Z,964.05
2022-12-18T04:21:00.825Z,964.10
2022-12-18T04:22:00.846Z,964.16
2022-12-18T04:23:00.793Z,964.07
2022-12-18T04:24:00.804Z,964.12
2022-12-18T04:25:00.790Z,964.06
2022-12-18T04:26:00.776Z,964.16
2022-12-18T04:27:00.781Z,964.20
2022-12-18T04:28:00.741Z,964.25
2022-12-18T04:29:00.742Z,964.21
2022-12-18T04:30:00.765Z,964.15
2022-12-18T04:31:00.776Z,964.16
2022-12-18T04:32:00.683Z,964.17
2022-12-18T04:33:00.677Z,964.17
2022-12-18T04:34:00.672Z,964.19
2022-12-18T04:35:00.682Z,964.22
2022-12-18T04:36:00.657Z,964.22
2022-12-18T04:37:00.636Z,964.27
2022-12-18T04:38:00.651Z,964.24
2022-12-18T04:39:00.602Z,964.29
2022-12-18T04:40:00.629Z,964.25
2022-12-18T04:41:00.587Z,964.28
2022-12-18T04:42:00.720Z,964.27
2022-12-18T04:43:00.647Z,964.29
2022-12-18T04:44:00.553Z,964.29
2022-12-18T04:45:00.534Z,964.22
2022-12-18T04:46:00.563Z,964.23
2022-12-18T04:47:00.494Z,964.28
2022-12-18T04:48:00.510Z,964.26
2022-12-18T04:49:00.481Z,964.23
2022-12-18T04:50:00.489Z,964.17
2022-12-18T04:51:00.446Z,964.24
2022-12-18T04:52:00.473Z,964.29
2022-12-18T04:53:00.447Z,964.26
2022-12-18T04:54:00.434Z,964.31
2022-12-18T04:55:00.433Z,964.33
2022-12-18T04:56:00.388Z,964.37
2022-12-18T04:57:00.386Z,964.35
2022-12-18T04:58:00.375Z,964.33
2022-12-18T04:59:00.371Z,964.36
2022-12-18T05:00:00.370Z,964.34
2022-12-18T05:01:00.335Z,964.37
2022-12-18T05:02:00.485Z,964.39
2022-12-18T05:03:00.350Z,964.44
2022-12-18T05:04:00.401Z,964.46
2022-12-18T05:05:00.296Z,964.41
2022-12-18T05:06:00.274Z,964.39
2022-12-18T05:07:00.250Z,964.36
2022-12-18T05:08:00.243Z,964.40
2022-12-18T05:09:00.242Z,964.33
2022-12-18T05:10:00.287Z,964.36
2022-12-18T05:11:00.194Z,964.35
2022-12-18T05:12:00.219Z,964.38
2022-12-18T05:13:01.236Z,964.40
2022-12-18T05:14:00.173Z,964.42
2022-12-18T05:15:00.144Z,964.42
2022-12-18T05:16:00.248Z,964.48
2022-12-18T05:17:01.236Z,964.41
2022-12-18T05:18:00.163Z,964.43
2022-12-18T05:19:00.088Z,964.46
2022-12-18T05:20:00.165Z,964.45
2022-12-18T05:21:00.121Z,964.49
2022-12-18T05:22:00.107Z,964.56
2022-12-18T05:23:00.092Z,964.59
2022-12-18T05:24:00.100Z,964.61
2022-12-18T05:25:00.028Z,964.62
2022-12-18T05:26:00.028Z,964.58
2022-12-18T05:27:00.038Z,964.60
2022-12-18T05:28:00.045Z,964.65
2022-12-18T05:28:59.974Z,964.66
2022-12-18T05:30:00.065Z,964.70
2022-12-18T05:31:00.042Z,964.66
2022-12-18T05:31:59.965Z,964.64
2022-12-18T05:32:59.926Z,964.69
2022-12-18T05:33:59.995Z,964.67
2022-12-18T05:34:59.912Z,964.67
2022-12-18T05:35:59.928Z,964.71
2022-12-18T05:36:59.879Z,964.74
2022-12-18T05:37:59.870Z,964.68
2022-12-18T05:38:59.850Z,964.65
2022-12-18T05:39:59.883Z,964.72
2022-12-18T05:40:59.835Z,964.69
2022-12-18T05:41:59.827Z,964.70
2022-12-18T05:42:59.819Z,964.69
2022-12-18T05:43:59.798Z,964.74
2022-12-18T05:44:59.857Z,964.67
2022-12-18T05:45:59.777Z,964.62
2022-12-18T05:46:59.817Z,964.62
2022-12-18T05:47:59.774Z,964.61
2022-12-18T05:48:59.734Z,964.65
2022-12-18T05:49:59.753Z,964.67
2022-12-18T05:50:59.717Z,964.71
2022-12-18T05:51:59.726Z,964.77
2022-12-18T05:52:59.690Z,964.84
2022-12-18T05:53:59.732Z,964.87
2022-12-18T05:54:59.666Z,964.90
2022-12-18T05:55:59.646Z,964.94
2022-12-18T05:56:59.625Z,964.93
2022-12-18T05:57:59.639Z,964.87
2022-12-18T05:58:59.645Z,964.91
2022-12-18T05:59:59.605Z,964.89
2022-12-18T06:00:59.579Z,964.90
2022-12-18T06:01:59.689Z,964.86
2022-12-18T06:02:59.651Z,964.88
2022-12-18T06:03:59.620Z,964.87
2022-12-18T06:04:59.566Z,964.91
2022-12-18T06:05:59.553Z,964.88
2022-12-18T06:06:59.518Z,964.92
2022-12-18T06:07:59.603Z,964.91
2022-12-18T06:08:59.508Z,964.95
2022-12-18T06:09:59.473Z,964.94
2022-12-18T06:10:59.476Z,964.93
2022-12-18T06:11:59.467Z,964.95
2022-12-18T06:12:59.466Z,964.97
2022-12-18T06:13:59.626Z,964.97
2022-12-18T06:14:59.436Z,964.96
2022-12-18T06:15:59.458Z,964.96
2022-12-18T06:16:59.425Z,964.95
2022-12-18T06:17:59.409Z,965.01
2022-12-18T06:18:59.409Z,964.99
2022-12-18T06:19:59.366Z,965.00
2022-12-18T06:20:59.373Z,964.98
2022-12-18T06:21:59.324Z,964.94
2022-12-18T06:22:59.362Z,964.97
2022-12-18T06:23:59.355Z,965.02
2022-12-18T06:24:59.311Z,964.99
2022-12-18T06:25:59.344Z,964.96
2022-12-18T06:26:59.259Z,964.96
2022-12-18T06:27:59.295Z,964.87
2022-12-18T06:28:59.235Z,964.96
2022-12-18T06:29:59.246Z,965.02
2022-12-18T06:30:59.244Z,964.98
2022-12-18T06:31:59.365Z,964.98
2022-12-18T06:32:59.185Z,964.99
2022-12-18T06:33:59.209Z,964.99
2022-12-18T06:34:59.201Z,965.04
2022-12-18T06:36:01.102Z,964.99
2022-12-18T06:36:59.149Z,965.02
2022-12-18T06:37:59.164Z,964.96
2022-12-18T06:38:59.114Z,964.97
2022-12-18T06:39:59.117Z,965.00
2022-12-18T06:40:59.155Z,965.05
2022-12-18T06:41:59.136Z,965.03
2022-12-18T06:42:59.068Z,965.01
2022-12-18T06:44:00.075Z,965.00
2022-12-18T06:44:59.114Z,965.07
2022-12-18T06:45:59.082Z,965.01
2022-12-18T06:46:59.028Z,965.08
2022-12-18T06:47:59.066Z,965.11
2022-12-18T06:48:58.998Z,965.14
2022-12-18T06:49:59.027Z,965.08
2022-12-18T06:50:58.985Z,965.11
2022-12-18T06:51:59.003Z,965.10
2022-12-18T06:52:59.002Z,965.08
2022-12-18T06:53:58.983Z,965.08
2022-12-18T06:54:58.926Z,965.08
2022-12-18T06:55:59.069Z,965.08
2022-12-18T06:56:58.924Z,965.07
2022-12-18T06:57:58.938Z,965.12
2022-12-18T06:58:58.882Z,965.11
2022-12-18T06:59:58.867Z,965.11
2022-12-18T07:00:58.908Z,965.11
2022-12-18T07:01:58.940Z,965.13
2022-12-18T07:02:58.909Z,965.13
2022-12-18T07:03:58.841Z,965.14
2022-12-18T07:04:58.807Z,965.12
2022-12-18T07:05:58.849Z,965.10
2022-12-18T07:06:58.792Z,965.10
2022-12-18T07:07:58.792Z,965.11
2022-12-18T07:08:58.800Z,965.08
2022-12-18T07:09:58.742Z,965.14
2022-12-18T07:10:58.762Z,965.15
2022-12-18T07:11:58.749Z,965.15
2022-12-18T07:12:58.697Z,965.19
2022-12-18T07:13:58.732Z,965.20
2022-12-18T07:14:58.691Z,965.20
2022-12-18T07:15:58.794Z,965.15
2022-12-18T07:16:58.774Z,965.21
2022-12-18T07:17:58.680Z,965.16
2022-12-18T07:18:58.621Z,965.20
2022-12-18T07:19:58.653Z,965.25
2022-12-18T07:20:58.666Z,965.32
2022-12-18T07:21:58.604Z,965.31
2022-12-18T07:22:58.596Z,965.35
2022-12-18T07:23:58.559Z,965.34
2022-12-18T07:24:58.608Z,965.30
2022-12-18T07:25:58.613Z,965.28
2022-12-18T07:26:58.536Z,965.35
2022-12-18T07:27:58.609Z,965.38
2022-12-18T07:28:58.642Z,965.37
2022-12-18T07:29:58.500Z,965.36
2022-12-18T07:30:58.517Z,965.40
2022-12-18T07:31:58.595Z,965.42
2022-12-18T07:32:58.465Z,965.47
2022-12-18T07:33:58.441Z,965.47
2022-12-18T07:34:58.429Z,965.43
2022-12-18T07:35:58.455Z,965.52
2022-12-18T07:36:58.423Z,965.50
2022-12-18T07:37:58.526Z,965.47
2022-12-18T07:38:58.424Z,965.50
2022-12-18T07:39:58.356Z,965.52
2022-12-18T07:40:58.375Z,965.49
2022-12-18T07:41:58.375Z,965.54
2022-12-18T07:42:58.359Z,965.47
2022-12-18T07:43:58.346Z,965.48
2022-12-18T07:44:58.319Z,965.51
2022-12-18T07:45:59.411Z,965.50
2022-12-18T07:46:58.297Z,965.46
2022-12-18T07:47:58.286Z,965.49
2022-12-18T07:48:58.305Z,965.50
2022-12-18T07:49:58.259Z,965.51
2022-12-18T07:50:58.241Z,965.51
2022-12-18T07:51:58.248Z,965.57
2022-12-18T07:52:58.279Z,965.49
2022-12-18T07:53:58.229Z,965.54
2022-12-18T07:54:58.237Z,965.50
2022-12-18T07:56:25.335Z,965.50
2022-12-18T07:56:58.203Z,965.55
2022-12-18T07:58:01.128Z,965.60
2022-12-18T07:58:58.182Z,965.59
2022-12-18T07:59:58.142Z,965.56
2022-12-18T08:00:58.156Z,965.56
2022-12-18T08:01:58.261Z,965.57
2022-12-18T08:02:58.189Z,965.53
2022-12-18T08:03:58.092Z,965.54
2022-12-18T08:04:58.108Z,965.54
2022-12-18T08:05:58.054Z,965.50
2022-12-18T08:06:58.078Z,965.50
2022-12-18T08:07:58.035Z,965.49
2022-12-18T08:08:58.031Z,965.47
2022-12-18T08:09:58.032Z,965.46
2022-12-18T08:10:58.010Z,965.52
2022-12-18T08:11:57.990Z,965.52
2022-12-18T08:13:04.472Z,965.51
2022-12-18T08:13:57.963Z,965.50
2022-12-18T08:14:57.965Z,965.54
2022-12-18T08:15:57.939Z,965.51
2022-12-18T08:16:57.935Z,965.48
2022-12-18T08:17:57.902Z,965.48
2022-12-18T08:18:57.894Z,965.49
2022-12-18T08:19:57.911Z,965.45
2022-12-18T08:20:57.875Z,965.41
2022-12-18T08:21:57.843Z,965.46
2022-12-18T08:22:57.846Z,965.52
2022-12-18T08:23:57.888Z,965.52
2022-12-18T08:24:57.843Z,965.50
2022-12-18T08:25:57.801Z,965.54
2022-12-18T08:27:27.850Z,965.54
2022-12-18T08:27:57.779Z,965.50
2022-12-18T08:28:57.768Z,965.52
2022-12-18T08:29:57.782Z,965.47
2022-12-18T08:30:57.879Z,965.46
2022-12-18T08:31:57.807Z,965.49
2022-12-18T08:32:57.721Z,965.48
2022-12-18T08:33:57.716Z,965.45
2022-12-18T08:34:57.690Z,965.44
2022-12-18T08:35:57.725Z,965.41
2022-12-18T08:36:57.666Z,965.44
2022-12-18T08:37:57.650Z,965.43
2022-12-18T08:38:57.665Z,965.39
2022-12-18T08:39:57.649Z,965.47
2022-12-18T08:40:57.613Z,965.47
2022-12-18T08:41:57.606Z,965.41
2022-12-18T08:42:57.615Z,965.41
2022-12-18T08:43:57.599Z,965.42
2022-12-18T08:44:57.607Z,965.43
2022-12-18T08:45:57.613Z,965.36
2022-12-18T08:46:57.549Z,965.39
2022-12-18T08:47:57.532Z,965.43
2022-12-18T08:48:57.552Z,965.39
2022-12-18T08:49:57.530Z,965.39
2022-12-18T08:50:57.507Z,965.38
2022-12-18T08:51:57.478Z,965.38
2022-12-18T08:52:57.475Z,965.45
2022-12-18T08:53:57.451Z,965.44
2022-12-18T08:54:57.472Z,965.45
2022-12-18T08:55:57.437Z,965.50
2022-12-18T08:56:57.426Z,965.49
2022-12-18T08:57:57.398Z,965.50
2022-12-18T08:58:57.406Z,965.47
2022-12-18T08:59:57.407Z,965.49
2022-12-18T09:00:57.404Z,965.52
2022-12-18T09:01:57.456Z,965.57
2022-12-18T09:02:57.516Z,965.52
2022-12-18T09:03:57.357Z,965.52
2022-12-18T09:04:57.905Z,965.52
2022-12-18T09:05:57.357Z,965.52
2022-12-18T09:06:57.332Z,965.53
2022-12-18T09:07:57.274Z,965.52
2022-12-18T09:08:57.267Z,965.54
2022-12-18T09:09:57.337Z,965.53
2022-12-18T09:10:57.256Z,965.57
2022-12-18T09:11:57.207Z,965.56
2022-12-18T09:12:57.194Z,965.56
2022-12-18T09:13:57.190Z,965.56
2022-12-18T09:14:57.192Z,965.58
2022-12-18T09:15:57.208Z,965.54
2022-12-18T09:16:57.207Z,965.57
2022-12-18T09:17:57.150Z,965.56
2022-12-18T09:18:57.160Z,965.58
2022-12-18T09:19:57.126Z,965.55
2022-12-18T09:20:57.127Z,965.63
2022-12-18T09:21:57.106Z,965.63
2022-12-18T09:22:57.080Z,965.66
2022-12-18T09:23:57.057Z,965.61
2022-12-18T09:24:57.086Z,965.64
2022-12-18T09:25:57.028Z,965.60
2022-12-18T09:26:58.062Z,965.61
2022-12-18T09:27:57.031Z,965.64
2022-12-18T09:28:57.009Z,965.63
2022-12-18T09:29:56.977Z,965.63
2022-12-18T09:30:57.011Z,965.57
2022-12-18T09:31:56.983Z,965.58
2022-12-18T09:32:56.934Z,965.60
2022-12-18T09:33:56.950Z,965.61
2022-12-18T09:34:56.923Z,965.62
2022-12-18T09:35:56.906Z,965.62
2022-12-18T09:36:56.906Z,965.60
2022-12-18T09:37:56.891Z,965.59
2022-12-18T09:38:56.891Z,965.59
2022-12-18T09:39:56.884Z,965.55
2022-12-18T09:40:56.844Z,965.53
2022-12-18T09:41:56.871Z,965.55
2022-12-18T09:42:56.849Z,965.56
2022-12-18T09:43:56.812Z,965.55
2022-12-18T09:44:56.824Z,965.50
2022-12-18T09:45:56.852Z,965.50
2022-12-18T09:46:56.776Z,965.51
2022-12-18T09:47:56.771Z,965.47
2022-12-18T09:48:56.739Z,965.46
2022-12-18T09:49:56.779Z,965.43
2022-12-18T09:50:56.733Z,965.45
2022-12-18T09:51:56.703Z,965.45
2022-12-18T09:52:56.684Z,965.40
2022-12-18T09:53:56.689Z,965.39
2022-12-18T09:54:56.697Z,965.39
2022-12-18T09:55:56.630Z,965.36
2022-12-18T09:56:56.667Z,965.35
2022-12-18T09:57:56.685Z,965.30
2022-12-18T09:58:56.617Z,965.31
2022-12-18T09:59:56.790Z,965.30
2022-12-18T10:00:56.590Z,965.27
2022-12-18T10:01:56.718Z,965.29
2022-12-18T10:02:56.646Z,965.29
2022-12-18T10:03:56.635Z,965.28
2022-12-18T10:04:56.584Z,965.28
2022-12-18T10:05:56.536Z,965.34
2022-12-18T10:06:56.516Z,965.33
2022-12-18T10:07:56.472Z,965.31
2022-12-18T10:08:56.470Z,965.34
2022-12-18T10:09:56.447Z,965.32
2022-12-18T10:10:56.478Z,965.31
2022-12-18T10:11:56.454Z,965.30
2022-12-18T10:13:02.558Z,965.31
2022-12-18T10:13:56.400Z,965.33
2022-12-18T10:14:56.387Z,965.31
2022-12-18T10:15:56.441Z,965.31
2022-12-18T10:16:56.383Z,965.29
2022-12-18T10:17:56.347Z,965.25
2022-12-18T10:18:56.341Z,965.26
2022-12-18T10:19:56.310Z,965.24
2022-12-18T10:20:56.357Z,965.23
2022-12-18T10:21:56.284Z,965.18
2022-12-18T10:22:56.285Z,965.19
2022-12-18T10:23:56.291Z,965.14
2022-12-18T10:24:56.287Z,965.13
2022-12-18T10:25:56.238Z,965.11
2022-12-18T10:26:56.241Z,965.10
2022-12-18T10:27:56.215Z,965.10
2022-12-18T10:28:59.548Z,965.06
2022-12-18T10:29:56.205Z,965.02
2022-12-18T10:30:56.263Z,965.03
2022-12-18T10:31:56.160Z,964.95
2022-12-18T10:32:56.211Z,964.99
2022-12-18T10:33:56.203Z,964.94
2022-12-18T10:35:00.185Z,964.92
2022-12-18T10:35:56.127Z,964.92
2022-12-18T10:36:56.103Z,964.90
2022-12-18T10:37:56.077Z,964.85
2022-12-18T10:38:56.115Z,964.88
2022-12-18T10:39:56.058Z,964.87
2022-12-18T10:40:56.050Z,964.85
2022-12-18T10:41:56.027Z,964.93
2022-12-18T10:42:56.020Z,964.89
2022-12-18T10:43:56.024Z,964.83
2022-12-18T10:44:56.010Z,964.81
2022-12-18T10:45:55.989Z,964.79
2022-12-18T10:46:56.034Z,964.82
2022-12-18T10:47:55.947Z,964.81
2022-12-18T10:48:55.977Z,964.79
2022-12-18T10:49:55.939Z,964.85
2022-12-18T10:51:13.313Z,964.84
2022-12-18T10:51:55.939Z,964.82
2022-12-18T10:52:55.891Z,964.84
2022-12-18T10:53:55.865Z,964.84
2022-12-18T10:54:55.868Z,964.78
2022-12-18T10:55:55.871Z,964.87
2022-12-18T10:56:55.832Z,964.84
2022-12-18T10:57:55.814Z,964.78
2022-12-18T10:58:55.809Z,964.80
2022-12-18T10:59:55.818Z,964.81
2022-12-18T11:00:55.780Z,964.81
2022-12-18T11:01:55.892Z,964.82
2022-12-18T11:02:56.022Z,964.81
2022-12-18T11:04:01.634Z,964.81
2022-12-18T11:04:55.757Z,964.77
2022-12-18T11:05:55.748Z,964.83
2022-12-18T11:06:55.691Z,964.79
2022-12-18T11:07:55.683Z,964.80
2022-12-18T11:08:55.659Z,964.77
2022-12-18T11:09:55.655Z,964.74
2022-12-18T11:10:55.666Z,964.75
2022-12-18T11:11:55.667Z,964.72
2022-12-18T11:12:55.618Z,964.76
2022-12-18T11:13:55.606Z,964.70
2022-12-18T11:14:55.586Z,964.70
2022-12-18T11:15:55.706Z,964.69
2022-12-18T11:17:26.238Z,964.68
2022-12-18T11:17:55.594Z,964.64
2022-12-18T11:18:55.551Z,964.59
2022-12-18T11:19:55.544Z,964.59
2022-12-18T11:20:58.468Z,964.60
2022-12-18T11:21:55.501Z,964.60
2022-12-18T11:22:55.512Z,964.58
2022-12-18T11:23:55.496Z,964.58
2022-12-18T11:25:29.535Z,964.56
2022-12-18T11:25:55.452Z,964.54
2022-12-18T11:26:59.636Z,964.55
2022-12-18T11:27:55.420Z,964.54
2022-12-18T11:28:55.427Z,964.55
2022-12-18T11:29:55.397Z,964.50
2022-12-18T11:30:55.467Z,964.55
2022-12-18T11:31:55.365Z,964.54
2022-12-18T11:32:55.333Z,964.54
2022-12-18T11:34:26.675Z,964.45
2022-12-18T11:34:59.030Z,964.47
2022-12-18T11:35:55.314Z,964.50
2022-12-18T11:36:55.291Z,964.53
2022-12-18T11:37:55.277Z,964.49
2022-12-18T11:38:55.263Z,964.55
2022-12-18T11:39:55.368Z,964.51
2022-12-18T11:40:55.236Z,964.52
2022-12-18T11:41:55.230Z,964.56
2022-12-18T11:42:55.252Z,964.58
2022-12-18T11:43:55.210Z,964.60
2022-12-18T11:44:55.182Z,964.59
2022-12-18T11:45:55.219Z,964.60
2022-12-18T11:46:55.214Z,964.61
2022-12-18T11:47:55.174Z,964.62
2022-12-18T11:48:55.131Z,964.60
2022-12-18T11:49:55.137Z,964.62
2022-12-18T11:50:55.111Z,964.57
2022-12-18T11:51:55.126Z,964.58
2022-12-18T11:52:59.293Z,964.56
2022-12-18T11:53:55.083Z,964.55
2022-12-18T11:54:55.080Z,964.53
2022-12-18T11:55:55.041Z,964.53
2022-12-18T11:56:55.064Z,964.57
2022-12-18T11:57:55.060Z,964.54
2022-12-18T11:58:55.027Z,964.56
2022-12-18T11:59:55.067Z,964.54
2022-12-18T12:00:54.982Z,964.58
2022-12-18T12:01:55.074Z,964.58
2022-12-18T12:02:55.003Z,964.55
2022-12-18T12:03:55.016Z,964.52
2022-12-18T12:04:54.926Z,964.56
2022-12-18T12:05:54.905Z,964.58
2022-12-18T12:07:00.062Z,964.55
2022-12-18T12:07:54.914Z,964.52
2022-12-18T12:08:54.866Z,964.54
2022-12-18T12:09:54.863Z,964.52
2022-12-18T12:10:54.840Z,964.55
2022-12-18T12:11:54.819Z,964.60
2022-12-18T12:12:54.823Z,964.57
2022-12-18T12:13:54.831Z,964.56
2022-12-18T12:14:54.773Z,964.50
2022-12-18T12:15:54.866Z,964.53
2022-12-18T12:16:54.755Z,964.51
2022-12-18T12:17:54.775Z,964.58
2022-12-18T12:18:54.750Z,964.56
2022-12-18T12:19:54.732Z,964.58
2022-12-18T12:20:54.736Z,964.55
2022-12-18T12:21:54.701Z,964.58
2022-12-18T12:22:54.693Z,964.61
2022-12-18T12:23:54.667Z,964.65
2022-12-18T12:24:54.645Z,964.64
2022-12-18T12:25:54.671Z,964.64
2022-12-18T12:26:54.643Z,964.64
2022-12-18T12:27:54.634Z,964.65
2022-12-18T12:28:54.656Z,964.62